Time;durP1;ratioP1;P1;durP2;ratioP2;P2;SDS_P1;SDS_P2;PMS_P1;PMS_P2;Temp;Humidity;BMP_temperature;BMP_pressure;BME280_temperature;BME280_humidity;BME280_pressure;Samples;Min_cycle;Max_cycle;Signal;HPM_P1;HPM_P2
2023/09/27 00:01:55;;;;;;;22.63;15.02;;;13.30;1.00;;;;;;5045610;28;20064;-80
2023/09/27 00:04:20;;;;;;;18.45;13.85;;;13.30;1.00;;;;;;5045533;28;20117;-81
2023/09/27 00:06:46;;;;;;;21.83;15.02;;;13.30;1.00;;;;;;5045062;28;20045;-81
2023/09/27 00:09:11;;;;;;;22.63;15.93;;;13.20;1.00;;;;;;5031699;28;20035;-80
2023/09/27 00:11:37;;;;;;;23.83;15.95;;;13.20;1.00;;;;;;5042013;28;20549;-80
2023/09/27 00:14:03;;;;;;;22.45;16.35;;;13.20;1.00;;;;;;5045877;28;20025;-81
2023/09/27 00:16:28;;;;;;;22.88;14.73;;;13.20;1.00;;;;;;5047426;28;20041;-81
2023/09/27 00:18:54;;;;;;;24.60;15.70;;;13.20;1.00;;;;;;5055449;28;20040;-81
2023/09/27 00:21:20;;;;;;;26.45;16.48;;;13.20;1.00;;;;;;5048222;28;20546;-80
2023/09/27 00:23:45;;;;;;;23.38;15.77;;;13.20;1.00;;;;;;5046506;28;20036;-80
2023/09/27 00:26:11;;;;;;;21.70;15.38;;;13.10;1.00;;;;;;5045946;28;20629;-81
2023/09/27 00:28:36;;;;;;;23.48;15.68;;;13.30;1.00;;;;;;5026761;28;20037;-80
2023/09/27 00:31:02;;;;;;;21.88;16.02;;;13.20;1.00;;;;;;5046145;28;20107;-80
2023/09/27 00:33:28;;;;;;;21.63;15.75;;;13.30;1.00;;;;;;5047132;28;20037;-81
2023/09/27 00:35:54;;;;;;;27.48;17.48;;;13.30;1.00;;;;;;5043335;28;20116;-80
2023/09/27 00:38:19;;;;;;;22.92;16.55;;;13.30;1.00;;;;;;5035146;28;20105;-80
2023/09/27 00:40:49;;;;;;;25.75;17.23;;;13.30;1.00;;;;;;5035702;28;20064;-81
2023/09/27 00:43:32;;;;;;;24.25;16.27;;;13.30;1.00;;;;;;5031544;28;20034;-80
2023/09/27 00:46:01;;;;;;;23.08;16.17;;;13.30;1.00;;;;;;5048717;28;20476;-81
2023/09/27 00:48:27;;;;;;;21.90;15.55;;;13.40;1.00;;;;;;5028031;28;20036;-81
2023/09/27 00:50:54;;;;;;;25.80;15.73;;;13.40;1.00;;;;;;5030609;28;20049;-81
2023/09/27 00:53:22;;;;;;;21.02;16.75;;;13.40;1.00;;;;;;5031663;28;20520;-81
2023/09/27 00:55:48;;;;;;;23.10;16.88;;;13.40;1.00;;;;;;5024974;28;20110;-81
2023/09/27 00:58:18;;;;;;;24.40;16.63;;;13.40;1.00;;;;;;5044698;28;20064;-81
2023/09/27 01:00:50;;;;;;;21.75;15.77;;;13.30;1.00;;;;;;5030998;28;20672;-81
2023/09/27 01:03:16;;;;;;;25.08;16.40;;;13.30;1.00;;;;;;5045454;28;20677;-81
2023/09/27 01:05:42;;;;;;;23.90;15.43;;;13.30;1.00;;;;;;5051305;28;20034;-81
2023/09/27 01:08:08;;;;;;;24.17;17.20;;;13.20;1.00;;;;;;5035552;28;20029;-81
2023/09/27 01:10:35;;;;;;;25.10;17.50;;;13.20;1.00;;;;;;5021932;28;20044;-81
2023/09/27 01:13:01;;;;;;;22.05;16.38;;;13.10;1.00;;;;;;5031485;28;20055;-81
2023/09/27 01:15:27;;;;;;;26.70;16.65;;;13.10;1.00;;;;;;5043051;28;20040;-81
2023/09/27 01:17:53;;;;;;;26.90;17.77;;;13.10;1.00;;;;;;5054435;28;20033;-81
2023/09/27 01:20:20;;;;;;;23.90;17.48;;;13.10;1.00;;;;;;5053062;28;20123;-81
2023/09/27 01:23:12;;;;;;;26.38;17.70;;;13.10;1.00;;;;;;5025957;28;20034;-81
2023/09/27 01:25:39;;;;;;;27.27;18.13;;;13.00;1.00;;;;;;5039709;28;20048;-81
2023/09/27 01:28:08;;;;;;;26.42;19.33;;;13.00;1.00;;;;;;5047853;28;20084;-81
2023/09/27 01:30:34;;;;;;;26.17;17.27;;;13.00;1.00;;;;;;5038090;28;20388;-81
2023/09/27 01:33:04;;;;;;;29.33;19.70;;;13.00;1.00;;;;;;5031281;28;20043;-81
2023/09/27 01:35:30;;;;;;;25.77;17.80;;;13.00;1.00;;;;;;5030357;28;20626;-81
2023/09/27 01:37:56;;;;;;;25.48;17.58;;;13.00;1.00;;;;;;5048422;28;20035;-81
2023/09/27 01:40:26;;;;;;;26.30;18.98;;;13.00;1.00;;;;;;5051403;28;20037;-81
2023/09/27 01:42:52;;;;;;;25.73;18.45;;;13.00;1.00;;;;;;5041029;28;20032;-81
2023/09/27 01:45:18;;;;;;;28.05;18.67;;;13.00;1.00;;;;;;5042626;28;20537;-81
2023/09/27 01:47:44;;;;;;;27.27;19.38;;;12.90;1.00;;;;;;5036691;28;20040;-81
2023/09/27 01:50:10;;;;;;;24.08;16.90;;;12.90;1.00;;;;;;5050027;28;20044;-80
2023/09/27 01:52:35;;;;;;;26.17;18.25;;;12.90;1.00;;;;;;5060307;28;20044;-81
2023/09/27 01:55:03;;;;;;;26.20;18.08;;;12.90;1.00;;;;;;5039490;28;20108;-81
2023/09/27 01:57:28;;;;;;;22.48;16.90;;;12.90;1.00;;;;;;5051446;28;20033;-80
2023/09/27 01:59:54;;;;;;;29.35;19.95;;;12.80;1.00;;;;;;5047182;28;20047;-81
2023/09/27 02:02:20;;;;;;;29.58;19.25;;;12.80;1.00;;;;;;5045458;28;20080;-81
2023/09/27 02:04:45;;;;;;;28.50;19.15;;;12.80;1.00;;;;;;5047546;28;20079;-81
2023/09/27 02:07:11;;;;;;;26.38;17.88;;;12.80;1.00;;;;;;5031465;28;20406;-81
2023/09/27 02:09:36;;;;;;;25.40;17.85;;;12.80;1.00;;;;;;5032057;28;20041;-81
2023/09/27 02:12:02;;;;;;;26.80;18.05;;;12.70;1.00;;;;;;5028445;28;20137;-81
2023/09/27 02:14:28;;;;;;;27.90;19.10;;;12.70;1.00;;;;;;5032730;28;20047;-81
2023/09/27 02:16:55;;;;;;;28.13;19.30;;;12.60;1.00;;;;;;5024354;28;20494;-81
2023/09/27 02:19:21;;;;;;;27.67;18.50;;;12.60;1.00;;;;;;5037567;28;20032;-81
2023/09/27 02:21:46;;;;;;;27.42;18.52;;;12.60;1.00;;;;;;5035761;28;20049;-81
2023/09/27 02:24:12;;;;;;;27.05;18.58;;;12.60;1.00;;;;;;5033034;28;20122;-81
2023/09/27 02:26:38;;;;;;;31.52;18.98;;;12.60;1.00;;;;;;5030750;28;20120;-81
2023/09/27 02:29:05;;;;;;;25.15;17.83;;;12.60;2.00;;;;;;5048001;28;20071;-80
2023/09/27 02:31:30;;;;;;;27.80;18.40;;;12.50;4.40;;;;;;5027257;28;20133;-81
2023/09/27 02:33:56;;;;;;;29.02;18.60;;;12.50;8.90;;;;;;5028258;28;20110;-81
2023/09/27 02:36:22;;;;;;;24.90;17.50;;;12.50;10.80;;;;;;5043302;28;20057;-81
2023/09/27 02:38:48;;;;;;;29.08;18.65;;;12.50;9.90;;;;;;5043407;28;20403;-80
2023/09/27 02:41:13;;;;;;;25.50;18.02;;;12.40;11.00;;;;;;5052912;28;20048;-81
2023/09/27 02:43:40;;;;;;;24.48;18.55;;;12.40;12.90;;;;;;5034634;28;20041;-81
2023/09/27 02:46:06;;;;;;;29.08;19.95;;;12.40;14.90;;;;;;5047539;28;20087;-81
2023/09/27 02:48:32;;;;;;;27.60;19.55;;;12.30;19.80;;;;;;5022492;28;20590;-81
2023/09/27 02:50:58;;;;;;;28.92;19.23;;;12.30;22.00;;;;;;5044909;28;20052;-81
2023/09/27 02:53:24;;;;;;;25.55;18.92;;;12.30;25.00;;;;;;5027337;28;20048;-81
2023/09/27 02:55:49;;;;;;;28.00;19.20;;;12.30;26.10;;;;;;5046515;28;20040;-81
2023/09/27 02:58:15;;;;;;;29.98;19.85;;;12.30;28.60;;;;;;5026033;28;20049;-81
2023/09/27 03:00:42;;;;;;;29.98;20.55;;;12.30;31.90;;;;;;5032021;28;20036;-81
2023/09/27 03:03:13;;;;;;;29.83;20.33;;;12.20;34.60;;;;;;5030468;28;20052;-81
2023/09/27 03:05:39;;;;;;;27.40;19.63;;;12.20;34.30;;;;;;5022920;28;20047;-81
2023/09/27 03:08:05;;;;;;;28.50;20.55;;;12.20;37.60;;;;;;5037347;28;20047;-81
2023/09/27 03:10:31;;;;;;;28.85;20.35;;;12.20;40.00;;;;;;5029879;28;20041;-81
2023/09/27 03:12:58;;;;;;;34.10;22.10;;;12.20;41.60;;;;;;5056901;28;20530;-81
2023/09/27 03:15:24;;;;;;;31.63;21.05;;;12.20;45.50;;;;;;5041731;28;20048;-81
2023/09/27 03:17:50;;;;;;;33.83;21.17;;;12.20;48.20;;;;;;5018887;28;20601;-81
2023/09/27 03:20:16;;;;;;;33.70;22.52;;;12.20;50.50;;;;;;5028013;28;20068;-81
2023/09/27 03:22:48;;;;;;;30.20;20.52;;;12.20;53.20;;;;;;5038314;28;20041;-81
2023/09/27 03:25:17;;;;;;;32.60;20.58;;;12.20;56.10;;;;;;5054718;28;20056;-81
2023/09/27 03:27:42;;;;;;;33.22;21.48;;;12.20;58.60;;;;;;5036797;28;20039;-81
2023/09/27 03:30:09;;;;;;;32.85;22.02;;;12.10;61.30;;;;;;5035382;28;20606;-81
2023/09/27 03:32:34;;;;;;;31.58;21.50;;;12.10;62.80;;;;;;5051091;28;20495;-81
2023/09/27 03:35:03;;;;;;;33.70;22.55;;;12.10;60.70;;;;;;5048933;28;20044;-81
2023/09/27 03:37:30;;;;;;;30.50;21.55;;;12.20;60.30;;;;;;5046739;28;20041;-81
2023/09/27 03:39:56;;;;;;;36.28;22.40;;;12.10;62.70;;;;;;5044031;28;20041;-80
2023/09/27 03:42:23;;;;;;;33.92;22.20;;;12.10;65.70;;;;;;5030973;28;20040;-81
2023/09/27 03:44:49;;;;;;;32.38;21.13;;;12.10;67.60;;;;;;5049593;28;20426;-81
2023/09/27 03:47:15;;;;;;;28.15;20.70;;;12.10;69.50;;;;;;5042961;28;20059;-80
2023/09/27 03:49:41;;;;;;;28.73;19.45;;;12.00;69.50;;;;;;5039983;28;20045;-80
2023/09/27 03:52:09;;;;;;;27.08;18.73;;;12.00;69.90;;;;;;5051475;28;20037;-80
2023/09/27 03:54:35;;;;;;;26.85;18.60;;;11.90;71.40;;;;;;5048182;28;20055;-81
2023/09/27 03:57:01;;;;;;;25.02;18.60;;;11.90;72.10;;;;;;5017777;28;20036;-81
2023/09/27 03:59:27;;;;;;;27.30;18.58;;;11.90;72.90;;;;;;5030514;28;20041;-81
2023/09/27 04:01:52;;;;;;;29.15;17.65;;;11.80;73.20;;;;;;5038342;28;20467;-81
2023/09/27 04:04:18;;;;;;;25.83;18.40;;;11.80;73.90;;;;;;5036652;28;20060;-82
2023/09/27 04:06:44;;;;;;;27.48;19.38;;;11.80;74.60;;;;;;5032233;28;20063;-81
2023/09/27 04:09:10;;;;;;;26.38;17.77;;;11.80;74.50;;;;;;5041959;28;20064;-81
2023/09/27 04:11:37;;;;;;;27.85;18.52;;;11.80;76.20;;;;;;5014007;28;20444;-81
2023/09/27 04:14:03;;;;;;;26.27;17.83;;;11.80;77.00;;;;;;5062908;28;20029;-82
2023/09/27 04:16:30;;;;;;;29.77;19.60;;;11.70;76.50;;;;;;5036053;28;20126;-81
2023/09/27 04:18:59;;;;;;;24.80;17.60;;;11.70;76.00;;;;;;5038856;28;20032;-82
2023/09/27 04:21:25;;;;;;;28.38;18.80;;;11.70;76.30;;;;;;5033698;28;20132;-81
2023/09/27 04:23:55;;;;;;;26.02;17.02;;;11.60;73.60;;;;;;5044580;28;20041;-81
2023/09/27 04:26:23;;;;;;;25.70;17.75;;;11.60;73.20;;;;;;5029040;28;20069;-81
2023/09/27 04:28:49;;;;;;;27.20;19.20;;;11.60;77.00;;;;;;5034832;28;20040;-81
2023/09/27 04:31:15;;;;;;;30.60;20.17;;;11.50;76.20;;;;;;5050077;28;20529;-81
2023/09/27 04:33:44;;;;;;;28.52;19.95;;;11.50;81.10;;;;;;5025667;28;20033;-80
2023/09/27 04:36:15;;;;;;;31.95;19.75;;;11.50;84.60;;;;;;5041359;28;20040;-81
2023/09/27 04:38:42;;;;;;;33.35;21.40;;;11.50;88.40;;;;;;5054385;28;20056;-80
2023/09/27 04:41:08;;;;;;;32.75;22.60;;;11.50;90.50;;;;;;5024685;28;20128;-81
2023/09/27 04:43:34;;;;;;;34.30;22.67;;;11.50;91.90;;;;;;5028938;28;20037;-81
2023/09/27 04:46:00;;;;;;;31.98;20.45;;;11.50;91.50;;;;;;5045461;28;20045;-81
2023/09/27 04:48:25;;;;;;;31.48;21.15;;;11.50;90.80;;;;;;5022153;28;20048;-80
2023/09/27 04:50:51;;;;;;;32.45;21.20;;;11.50;89.60;;;;;;5029887;28;20077;-80
2023/09/27 04:53:17;;;;;;;31.42;20.42;;;11.40;89.50;;;;;;5040791;28;20052;-81
2023/09/27 04:55:42;;;;;;;33.05;20.77;;;11.40;90.60;;;;;;5035198;28;20412;-80
2023/09/27 04:58:08;;;;;;;33.70;21.70;;;11.40;92.50;;;;;;5038736;28;20071;-80
2023/09/27 05:00:34;;;;;;;34.63;21.63;;;11.40;93.60;;;;;;5031666;28;20039;-80
2023/09/27 05:02:59;;;;;;;31.85;20.98;;;11.30;94.70;;;;;;5032557;28;20045;-80
2023/09/27 05:05:25;;;;;;;30.90;20.83;;;11.40;96.10;;;;;;5040540;28;20406;-80
2023/09/27 05:07:51;;;;;;;29.92;21.02;;;11.40;96.90;;;;;;5040709;28;20120;-81
2023/09/27 05:10:16;;;;;;;36.67;23.08;;;11.40;96.60;;;;;;5034178;28;20560;-80
2023/09/27 05:12:42;;;;;;;34.35;21.05;;;11.30;96.90;;;;;;5043713;28;20037;-77
2023/09/27 05:15:11;;;;;;;33.53;21.77;;;11.30;98.70;;;;;;5040999;28;20048;-82
2023/09/27 05:17:37;;;;;;;35.60;22.38;;;11.40;99.90;;;;;;5042020;28;20045;-85
2023/09/27 05:20:08;;;;;;;36.20;22.40;;;11.40;99.90;;;;;;5053506;28;20071;-84
2023/09/27 05:22:35;;;;;;;35.83;23.05;;;11.50;99.90;;;;;;5047582;28;20063;-84
2023/09/27 05:25:01;;;;;;;36.10;22.90;;;11.50;99.90;;;;;;5042847;28;20044;-84
2023/09/27 05:27:26;;;;;;;37.00;24.30;;;11.60;99.90;;;;;;5034903;28;20038;-85
2023/09/27 05:29:53;;;;;;;43.50;24.65;;;11.70;99.90;;;;;;5028320;28;20174;-84
2023/09/27 05:32:19;;;;;;;35.95;24.08;;;11.90;99.90;;;;;;5033924;28;20076;-85
2023/09/27 05:34:44;;;;;;;37.70;24.27;;;12.00;99.90;;;;;;5055046;28;21743;-85
2023/09/27 05:37:10;;;;;;;37.90;23.20;;;12.10;99.90;;;;;;5023790;28;20034;-85
2023/09/27 05:39:36;;;;;;;33.65;22.48;;;12.20;99.90;;;;;;5029381;28;20068;-83
2023/09/27 05:42:01;;;;;;;32.78;22.27;;;12.20;99.90;;;;;;5042606;28;20188;-83
2023/09/27 05:44:27;;;;;;;36.05;24.35;;;12.20;99.90;;;;;;5046334;28;20120;-84
2023/09/27 05:46:53;;;;;;;29.92;21.13;;;12.30;99.90;;;;;;5013736;28;20045;-84
2023/09/27 05:49:19;;;;;;;35.88;21.65;;;12.20;99.90;;;;;;5037158;28;20051;-84
2023/09/27 05:51:45;;;;;;;31.27;21.77;;;12.20;99.90;;;;;;5056634;28;20061;-84
2023/09/27 05:54:10;;;;;;;34.25;23.52;;;12.30;99.90;;;;;;5036176;28;20075;-84
2023/09/27 05:56:39;;;;;;;36.20;23.10;;;12.30;99.90;;;;;;5015903;28;20037;-83
2023/09/27 05:59:12;;;;;;;32.83;22.63;;;12.30;99.90;;;;;;5040241;28;20067;-84
2023/09/27 06:01:39;;;;;;;32.10;21.88;;;12.30;99.90;;;;;;5033039;28;20040;-84
2023/09/27 06:04:04;;;;;;;32.28;22.05;;;12.30;99.90;;;;;;5025837;28;20503;-83
2023/09/27 06:06:30;;;;;;;32.42;22.50;;;12.40;99.90;;;;;;5032480;28;20060;-84
2023/09/27 06:08:56;;;;;;;32.30;22.58;;;12.50;99.90;;;;;;5031962;28;20052;-83
2023/09/27 06:11:21;;;;;;;32.33;21.67;;;12.40;99.90;;;;;;5038339;28;20038;-84
2023/09/27 06:13:47;;;;;;;32.95;21.63;;;12.50;99.90;;;;;;5024307;28;20116;-84
2023/09/27 06:16:14;;;;;;;33.63;22.13;;;12.50;99.90;;;;;;5036758;28;20116;-83
2023/09/27 06:18:39;;;;;;;34.88;22.92;;;12.50;99.90;;;;;;5058660;28;20040;-85
2023/09/27 06:21:05;;;;;;;33.97;21.73;;;12.40;99.90;;;;;;5035296;28;20221;-84
2023/09/27 06:23:31;;;;;;;30.52;21.67;;;12.50;99.90;;;;;;5056963;28;20416;-83
2023/09/27 06:25:56;;;;;;;31.05;21.98;;;12.50;99.90;;;;;;5024284;28;20041;-83
2023/09/27 06:28:22;;;;;;;35.38;22.90;;;12.50;99.90;;;;;;5021110;28;20032;-83
2023/09/27 06:30:48;;;;;;;31.23;21.92;;;12.60;99.90;;;;;;5045559;28;20040;-84
2023/09/27 06:33:14;;;;;;;33.60;22.42;;;12.60;99.90;;;;;;5045904;28;20033;-84
2023/09/27 06:35:40;;;;;;;37.35;22.35;;;12.60;99.90;;;;;;5038014;28;20155;-85
2023/09/27 06:38:05;;;;;;;33.65;22.30;;;12.70;99.90;;;;;;5039127;28;20054;-85
2023/09/27 06:40:35;;;;;;;33.20;21.50;;;12.70;99.90;;;;;;5034693;28;20060;-86
2023/09/27 06:43:01;;;;;;;32.65;21.80;;;12.70;99.90;;;;;;5044249;28;20052;-85
2023/09/27 06:45:27;;;;;;;37.60;22.60;;;12.70;99.90;;;;;;5032233;28;20033;-85
2023/09/27 06:47:54;;;;;;;32.33;23.05;;;12.70;99.90;;;;;;5031074;28;20034;-85
2023/09/27 06:50:20;;;;;;;32.65;22.38;;;12.70;99.90;;;;;;5024417;28;20056;-85
2023/09/27 06:52:47;;;;;;;44.30;22.20;;;12.80;99.90;;;;;;5018559;28;20050;-86
2023/09/27 06:55:16;;;;;;;34.83;23.02;;;12.80;99.90;;;;;;5055729;28;20064;-86
2023/09/27 06:57:48;;;;;;;34.45;22.08;;;12.90;99.90;;;;;;5026124;28;20040;-85
2023/09/27 07:00:24;;;;;;;33.10;22.77;;;13.00;99.90;;;;;;5022240;28;20029;-85
2023/09/27 07:02:50;;;;;;;34.93;23.07;;;13.10;99.90;;;;;;5027917;28;21555;-85
2023/09/27 07:05:17;;;;;;;34.08;23.40;;;13.20;99.90;;;;;;5020366;28;20392;-86
2023/09/27 07:07:43;;;;;;;35.15;24.05;;;13.30;99.90;;;;;;5036705;28;20025;-85
2023/09/27 07:10:10;;;;;;;34.03;22.85;;;13.50;99.90;;;;;;5047082;28;20568;-85
2023/09/27 07:12:36;;;;;;;34.05;23.70;;;13.60;99.90;;;;;;5034044;28;20480;-85
2023/09/27 07:15:09;;;;;;;32.38;22.80;;;13.70;99.90;;;;;;5046041;28;20066;-85
2023/09/27 07:17:35;;;;;;;30.42;20.80;;;13.80;99.90;;;;;;5046936;28;20040;-85
2023/09/27 07:20:05;;;;;;;31.52;21.52;;;13.80;99.90;;;;;;5031809;28;20076;-86
2023/09/27 07:22:31;;;;;;;34.38;23.10;;;14.00;99.90;;;;;;5038260;28;20045;-86
2023/09/27 07:24:56;;;;;;;31.17;21.38;;;14.20;99.90;;;;;;5023279;28;20128;-85
2023/09/27 07:27:22;;;;;;;35.90;22.55;;;14.40;99.90;;;;;;5033510;28;20120;-85
2023/09/27 07:29:48;;;;;;;30.90;22.10;;;14.60;99.90;;;;;;5045840;28;20040;-85
2023/09/27 07:32:15;;;;;;;30.33;21.38;;;14.70;99.90;;;;;;5017751;28;20068;-85
2023/09/27 07:34:41;;;;;;;32.58;22.02;;;14.70;99.90;;;;;;5033166;28;20114;-85
2023/09/27 07:37:08;;;;;;;30.02;22.35;;;14.80;99.90;;;;;;5041903;28;20033;-84
2023/09/27 07:39:34;;;;;;;31.13;21.13;;;14.90;99.90;;;;;;5022681;28;20091;-85
2023/09/27 07:42:00;;;;;;;32.38;21.58;;;15.00;99.90;;;;;;5047956;28;20040;-84
2023/09/27 07:44:28;;;;;;;33.72;21.75;;;15.20;99.90;;;;;;5030005;28;20049;-84
2023/09/27 07:46:54;;;;;;;30.20;20.60;;;15.20;99.90;;;;;;5037789;28;20044;-84
2023/09/27 07:49:19;;;;;;;29.23;19.77;;;15.20;99.90;;;;;;5027533;28;20574;-84
2023/09/27 07:51:46;;;;;;;27.05;20.25;;;15.30;99.90;;;;;;5045344;28;20138;-84
2023/09/27 07:54:12;;;;;;;29.02;20.90;;;15.40;99.90;;;;;;5031720;28;20044;-84
2023/09/27 07:56:39;;;;;;;36.28;20.83;;;15.40;99.80;;;;;;5044349;28;20045;-85
2023/09/27 07:59:12;;;;;;;27.48;19.73;;;15.40;96.20;;;;;;5046134;28;20041;-85
2023/09/27 08:01:38;;;;;;;26.85;20.25;;;15.50;92.70;;;;;;5022871;28;20037;-77
2023/09/27 08:04:07;;;;;;;26.83;19.13;;;15.50;87.40;;;;;;5039996;28;20037;-76
2023/09/27 08:06:33;;;;;;;26.50;19.35;;;15.50;81.80;;;;;;5022485;28;20095;-77
2023/09/27 08:09:00;;;;;;;24.73;18.40;;;15.50;78.40;;;;;;5044478;28;20411;-76
2023/09/27 08:11:26;;;;;;;27.33;19.50;;;15.60;74.60;;;;;;5047501;28;20045;-77
2023/09/27 08:13:53;;;;;;;27.90;19.80;;;15.60;67.90;;;;;;5028172;28;20071;-77
2023/09/27 08:16:19;;;;;;;25.50;19.90;;;15.70;60.70;;;;;;5040398;28;20041;-77
2023/09/27 08:18:45;;;;;;;23.70;18.35;;;15.80;53.60;;;;;;5049876;28;20036;-77
2023/09/27 08:21:11;;;;;;;25.98;18.92;;;15.80;48.50;;;;;;5029686;28;20079;-77
2023/09/27 08:23:36;;;;;;;24.63;19.27;;;15.90;47.10;;;;;;5029185;28;20039;-77
2023/09/27 08:26:02;;;;;;;27.83;19.90;;;16.00;44.20;;;;;;5047572;28;20044;-76
2023/09/27 08:28:31;;;;;;;28.58;19.15;;;16.10;39.00;;;;;;5045303;28;20041;-77
2023/09/27 08:30:58;;;;;;;26.58;18.23;;;16.30;28.60;;;;;;5046833;28;20129;-77
2023/09/27 08:33:24;;;;;;;24.67;18.45;;;16.40;21.10;;;;;;5048015;28;20062;-77
2023/09/27 08:35:53;;;;;;;26.65;18.30;;;16.60;12.80;;;;;;5045408;28;20534;-77
2023/09/27 08:38:19;;;;;;;25.02;17.65;;;16.70;2.90;;;;;;5016620;28;20038;-77
2023/09/27 08:40:47;;;;;;;27.17;17.05;;;16.80;1.00;;;;;;5042463;28;20067;-77
2023/09/27 08:43:15;;;;;;;24.98;18.17;;;17.00;1.00;;;;;;5049050;28;20087;-77
2023/09/27 08:45:42;;;;;;;24.20;16.38;;;17.20;1.00;;;;;;5022631;28;20131;-78
2023/09/27 08:48:16;;;;;;;23.73;16.00;;;17.30;1.00;;;;;;5026088;28;20045;-77
2023/09/27 08:50:42;;;;;;;24.05;16.02;;;17.60;1.00;;;;;;5021223;28;20500;-76
2023/09/27 08:53:08;;;;;;;25.45;16.75;;;17.70;1.00;;;;;;5038855;28;20052;-76
2023/09/27 08:55:35;;;;;;;24.42;14.35;;;17.80;1.00;;;;;;5036180;28;20030;-77
2023/09/27 08:58:01;;;;;;;18.52;14.07;;;17.90;1.00;;;;;;5016463;28;20149;-77
2023/09/27 09:00:26;;;;;;;23.30;15.88;;;17.90;1.00;;;;;;5030510;28;20116;-77
2023/09/27 09:02:57;;;;;;;19.85;15.60;;;18.10;1.00;;;;;;5060128;28;20124;-77
2023/09/27 09:05:27;;;;;;;24.85;15.43;;;18.20;1.00;;;;;;5040295;28;20041;-77
2023/09/27 09:07:55;;;;;;;22.20;14.38;;;18.30;1.00;;;;;;5034857;28;20095;-77
2023/09/27 09:10:22;;;;;;;21.77;14.65;;;18.40;1.00;;;;;;5032909;28;20124;-77
2023/09/27 09:12:49;;;;;;;19.80;14.13;;;18.50;1.00;;;;;;5015739;28;20033;-77
2023/09/27 09:15:28;;;;;;;19.20;13.18;;;18.60;1.00;;;;;;5031996;28;20584;-77
2023/09/27 09:17:57;;;;;;;25.25;15.00;;;18.90;99.90;;;;;;5054888;28;20029;-77
2023/09/27 09:20:28;;;;;;;21.10;14.10;;;19.10;99.90;;;;;;5014940;28;20042;-77
2023/09/27 09:22:57;;;;;;;16.42;12.05;;;19.30;99.90;;;;;;5031470;28;20034;-77
2023/09/27 09:25:23;;;;;;;18.52;12.32;;;19.50;99.90;;;;;;5049856;28;20095;-77
2023/09/27 09:28:13;;;;;;;18.77;12.93;;;19.60;99.90;;;;;;5016967;28;20044;-77
2023/09/27 09:30:40;;;;;;;18.50;11.50;;;19.70;99.90;;;;;;5014250;28;20033;-77
2023/09/27 09:33:15;;;;;;;15.90;10.77;;;19.70;99.90;;;;;;5031077;28;20041;-77
2023/09/27 09:35:40;;;;;;;14.20;10.80;;;19.80;99.90;;;;;;5044022;28;20041;-77
2023/09/27 09:38:06;;;;;;;14.35;10.55;;;19.90;99.90;;;;;;5037382;28;20041;-77
2023/09/27 09:40:34;;;;;;;16.83;10.32;;;20.20;97.30;;;;;;5030297;28;20392;-77
2023/09/27 09:43:00;;;;;;;14.32;9.68;;;20.40;11.30;;;;;;5027859;28;20045;-77
2023/09/27 09:45:26;;;;;;;12.10;9.65;;;20.70;1.00;;;;;;5027520;28;20175;-77
2023/09/27 09:47:52;;;;;;;16.33;9.63;;;21.00;1.00;;;;;;5029795;28;20032;-78
2023/09/27 09:50:18;;;;;;;11.05;8.38;;;21.30;99.90;;;;;;5026696;28;20406;-77
2023/09/27 09:52:59;;;;;;;13.75;8.85;;;21.60;99.90;;;;;;5016834;28;20049;-77
2023/09/27 09:55:29;;;;;;;12.02;8.55;;;21.70;99.90;;;;;;5020484;28;20072;-77
2023/09/27 09:58:20;;;;;;;16.05;9.65;;;21.90;99.90;;;;;;5046977;28;20044;-78
2023/09/27 10:00:51;;;;;;;15.25;8.43;;;21.80;99.90;;;;;;5035233;28;20041;-77
2023/09/27 10:03:20;;;;;;;12.80;8.80;;;21.90;99.90;;;;;;5027742;28;20049;-77
2023/09/27 10:05:50;;;;;;;13.63;8.70;;;21.80;99.90;;;;;;5036918;28;20575;-77
2023/09/27 10:08:17;;;;;;;12.40;8.50;;;21.80;99.90;;;;;;5039899;28;20620;-78
2023/09/27 10:10:43;;;;;;;12.52;9.00;;;22.00;99.90;;;;;;5039697;28;20048;-74
2023/09/27 10:13:10;;;;;;;13.60;9.40;;;22.20;99.90;;;;;;5043452;28;20364;-74
2023/09/27 10:15:38;;;;;;;13.95;9.25;;;22.60;99.90;;;;;;5044789;28;20442;-74
2023/09/27 10:18:22;;;;;;;10.43;7.95;;;22.90;99.90;;;;;;5028724;28;20043;-74
2023/09/27 10:21:03;;;;;;;12.60;8.65;;;23.00;96.50;;;;;;5045326;28;20128;-73
2023/09/27 10:23:47;;;;;;;11.90;7.97;;;23.10;99.80;;;;;;5023009;28;20124;-73
2023/09/27 10:26:20;;;;;;;10.88;7.97;;;23.30;93.80;;;;;;5042048;28;20488;-74
2023/09/27 10:29:01;;;;;;;11.60;7.90;;;23.50;71.80;;;;;;5036201;28;20574;-74
2023/09/27 10:31:31;;;;;;;9.63;5.88;;;23.70;44.50;;;;;;5034611;28;20384;-74
2023/09/27 10:33:57;;;;;;;8.93;6.45;;;23.90;27.10;;;;;;5037264;28;20125;-74
2023/09/27 10:36:22;;;;;;;8.18;6.38;;;24.10;9.70;;;;;;5038797;28;20132;-74
2023/09/27 10:38:51;;;;;;;8.93;6.60;;;24.30;1.00;;;;;;5031452;28;20036;-74
2023/09/27 10:41:32;;;;;;;13.27;6.45;;;24.40;1.00;;;;;;5025468;28;20036;-74
2023/09/27 10:43:59;;;;;;;9.05;5.75;;;24.40;1.00;;;;;;5038823;28;20056;-74
2023/09/27 10:46:25;;;;;;;10.38;5.80;;;24.30;1.00;;;;;;5033899;28;20041;-74
2023/09/27 10:48:55;;;;;;;6.90;5.38;;;24.40;1.00;;;;;;5026504;28;20075;-74
2023/09/27 10:51:21;;;;;;;8.88;5.90;;;24.70;1.00;;;;;;5039635;28;20049;-74
2023/09/27 10:53:50;;;;;;;10.57;6.30;;;25.10;1.00;;;;;;5020913;28;20570;-74
2023/09/27 10:56:16;;;;;;;12.50;7.03;;;25.40;1.00;;;;;;5054793;28;20045;-74
2023/09/27 10:58:45;;;;;;;9.70;6.30;;;25.60;1.00;;;;;;5061605;28;20425;-74
2023/09/27 11:01:11;;;;;;;13.00;7.03;;;25.80;1.00;;;;;;5045842;28;20037;-74
2023/09/27 11:03:40;;;;;;;9.18;6.65;;;25.80;1.00;;;;;;5022025;28;20124;-74
2023/09/27 11:06:14;;;;;;;7.65;6.18;;;26.20;1.00;;;;;;5028495;28;20041;-74
2023/09/27 11:08:40;;;;;;;7.38;5.95;;;26.90;1.00;;;;;;5050263;28;20473;-74
2023/09/27 11:11:12;;;;;;;8.90;6.32;;;27.40;1.00;;;;;;5027942;28;20064;-74
2023/09/27 11:13:42;;;;;;;9.05;6.13;;;27.70;1.00;;;;;;5026416;28;20140;-74
2023/09/27 11:16:13;;;;;;;7.80;6.05;;;27.60;1.00;;;;;;5045317;28;20037;-74
2023/09/27 11:18:46;;;;;;;8.40;5.95;;;27.50;1.00;;;;;;5028632;28;20044;-74
2023/09/27 11:21:13;;;;;;;8.20;5.53;;;27.20;1.00;;;;;;5045411;28;20037;-74
2023/09/27 11:23:54;;;;;;;9.43;5.82;;;26.90;1.00;;;;;;5044835;28;20041;-74
2023/09/27 11:26:21;;;;;;;9.10;5.95;;;26.50;1.00;;;;;;5044550;28;20499;-74
2023/09/27 11:29:05;;;;;;;7.70;5.72;;;26.30;1.00;;;;;;5061567;28;20039;-74
2023/09/27 11:31:38;;;;;;;8.45;6.32;;;25.90;1.00;;;;;;5032758;28;20049;-74
2023/09/27 11:34:19;;;;;;;9.75;6.50;;;25.70;1.00;;;;;;5037791;28;20630;-74
2023/09/27 11:36:53;;;;;;;13.77;5.78;;;25.50;1.00;;;;;;5024871;28;20037;-75
2023/09/27 11:39:26;;;;;;;7.15;5.47;;;25.40;1.00;;;;;;5027288;28;20042;-75
2023/09/27 11:41:57;;;;;;;9.18;6.00;;;25.50;1.00;;;;;;5043636;28;20041;-74
2023/09/27 11:44:24;;;;;;;8.15;5.45;;;25.40;1.00;;;;;;5028785;28;20052;-74
2023/09/27 11:46:51;;;;;;;8.55;5.65;;;25.60;1.00;;;;;;5031753;28;20104;-74
2023/09/27 11:49:27;;;;;;;10.60;5.53;;;25.70;1.00;;;;;;5023577;28;20045;-74
2023/09/27 11:51:52;;;;;;;8.32;5.78;;;25.60;1.00;;;;;;5042099;28;20099;-75
2023/09/27 11:54:18;;;;;;;7.80;5.68;;;25.40;1.00;;;;;;5040478;28;20609;-74
2023/09/27 11:56:44;;;;;;;8.40;5.30;;;25.10;1.00;;;;;;5033101;28;20033;-75
2023/09/27 11:59:10;;;;;;;7.30;5.45;;;24.80;1.00;;;;;;5028912;28;20036;-74
2023/09/27 12:01:36;;;;;;;6.70;5.43;;;24.50;1.00;;;;;;5015201;28;20503;-74
2023/09/27 12:04:02;;;;;;;8.00;5.45;;;24.20;1.00;;;;;;5028471;28;20391;-74
2023/09/27 12:06:29;;;;;;;11.80;6.18;;;23.90;1.00;;;;;;5031506;28;20041;-74
2023/09/27 12:08:55;;;;;;;8.48;6.80;;;23.80;1.00;;;;;;5028076;28;20125;-74
2023/09/27 12:11:21;;;;;;;10.13;6.22;;;23.60;1.00;;;;;;5031026;28;20083;-74
2023/09/27 12:13:47;;;;;;;7.88;5.95;;;23.60;1.00;;;;;;5041594;28;20033;-74
2023/09/27 12:16:13;;;;;;;10.23;6.22;;;23.70;1.00;;;;;;5012845;28;20052;-74
2023/09/27 12:18:38;;;;;;;8.55;6.20;;;24.00;1.00;;;;;;5029793;28;20041;-74
2023/09/27 12:21:04;;;;;;;8.77;6.47;;;24.50;1.00;;;;;;5046331;28;20067;-74
2023/09/27 12:23:30;;;;;;;13.43;7.20;;;24.90;1.00;;;;;;5028960;28;21297;-74
2023/09/27 12:25:56;;;;;;;7.70;6.13;;;25.30;1.00;;;;;;5028238;28;20407;-74
2023/09/27 12:28:22;;;;;;;10.20;6.03;;;26.00;1.00;;;;;;5044696;28;20047;-75
2023/09/27 12:30:48;;;;;;;10.63;6.15;;;26.50;1.00;;;;;;5037084;28;20041;-74
2023/09/27 12:33:17;;;;;;;9.98;6.38;;;26.50;1.00;;;;;;5044403;28;20056;-74
2023/09/27 12:35:46;;;;;;;9.02;6.13;;;26.30;1.00;;;;;;5021092;28;20507;-74
2023/09/27 12:38:12;;;;;;;7.65;5.97;;;25.90;1.00;;;;;;5031822;28;20029;-74